Time;durP1;ratioP1;P1;durP2;ratioP2;P2;SDS_P1;SDS_P2;PMS_P1;PMS_P2;Temp;Humidity;BMP_temperature;BMP_pressure;BME280_temperature;BME280_humidity;BME280_pressure;Samples;Min_cycle;Max_cycle;Signal;HPM_P1;HPM_P2
2023/10/22 00:02:49;;;;;;;0.38;0.35;;;;;;;1.19;88.76;95002.13;6279754;28;20049;-67
2023/10/22 00:05:53;;;;;;;0.43;0.43;;;;;;;1.17;88.64;95003.16;6277112;28;20060;-66
2023/10/22 00:08:54;;;;;;;;;;;;;;;1.18;88.70;95005.63;6264518;28;20049;-66
2023/10/22 00:11:55;;;;;;;0.73;0.60;;;;;;;1.24;88.34;95010.44;6274695;28;19920;-67
2023/10/22 00:15:04;;;;;;;1.98;0.40;;;;;;;1.23;88.34;95008.78;6279992;28;20547;-66
2023/10/22 00:18:14;;;;;;;1.63;0.82;;;;;;;1.15;88.50;95016.16;6279509;28;20084;-67
2023/10/22 00:21:21;;;;;;;1.77;0.35;;;;;;;1.20;88.35;95024.50;6283537;28;20037;-66
2023/10/22 00:24:23;;;;;;;0.30;0.30;;;;;;;1.16;88.10;95025.63;6286563;28;20472;-66
2023/10/22 00:27:27;;;;;;;0.63;0.40;;;;;;;1.17;88.02;95014.34;6289628;28;20523;-66
2023/10/22 00:30:30;;;;;;;0.60;0.60;;;;;;;1.17;88.62;95031.63;6285738;28;20134;-67
2023/10/22 00:33:35;;;;;;;1.23;0.52;;;;;;;1.14;88.71;95032.66;6284697;28;20041;-67
2023/10/22 00:36:41;;;;;;;0.55;0.40;;;;;;;1.14;88.32;95055.97;6282759;28;20044;-67
2023/10/22 00:39:44;;;;;;;2.15;0.70;;;;;;;1.23;88.31;95081.34;6285181;28;20079;-66
2023/10/22 00:42:50;;;;;;;4.03;0.98;;;;;;;1.10;88.43;95072.56;6284313;28;20048;-66
2023/10/22 00:45:55;;;;;;;10.60;2.60;;;;;;;1.14;88.09;95076.69;6278463;28;20045;-66
2023/10/22 00:48:59;;;;;;;3.38;1.55;;;;;;;1.12;87.51;95062.97;6282442;28;20033;-67
2023/10/22 00:52:03;;;;;;;1.88;1.20;;;;;;;1.08;88.07;95077.84;6265063;28;20040;-66
2023/10/22 00:55:11;;;;;;;7.30;2.00;;;;;;;0.97;87.90;95075.03;6246205;28;20049;-67
2023/10/22 00:58:15;;;;;;;3.25;1.40;;;;;;;1.03;88.03;95090.22;6260500;28;20122;-67
2023/10/22 01:01:20;;;;;;;4.53;1.45;;;;;;;1.00;88.11;95094.75;6258915;28;20033;-66
2023/10/22 01:04:24;;;;;;;3.58;0.82;;;;;;;0.99;88.28;95099.09;6239623;28;20421;-66
2023/10/22 01:07:30;;;;;;;1.60;1.05;;;;;;;0.98;87.81;95106.94;6259270;28;20127;-66
2023/10/22 01:10:37;;;;;;;1.27;1.10;;;;;;;1.01;88.29;95111.94;6259800;28;20080;-67
2023/10/22 01:13:41;;;;;;;5.35;1.55;;;;;;;0.93;87.94;95114.13;6241879;28;20045;-68
2023/10/22 01:16:43;;;;;;;1.30;0.63;;;;;;;0.88;87.67;95122.16;6261990;28;20420;-67
2023/10/22 01:19:50;;;;;;;2.83;1.95;;;;;;;0.61;88.24;95083.06;6254857;28;20049;-67
2023/10/22 01:22:56;;;;;;;2.85;1.77;;;;;;;0.96;87.85;95139.84;6258414;28;20041;-68
2023/10/22 01:26:00;;;;;;;1.98;1.60;;;;;;;1.02;87.28;95123.97;6257273;28;20131;-66
2023/10/22 01:29:01;;;;;;;2.58;1.50;;;;;;;0.99;87.56;95139.69;6244986;28;20512;-68
2023/10/22 01:32:03;;;;;;;5.03;1.92;;;;;;;0.93;87.65;95147.78;6259795;28;20523;-66
2023/10/22 01:35:08;;;;;;;5.40;2.42;;;;;;;1.05;87.63;95134.19;6258030;28;20045;-66
2023/10/22 01:38:14;;;;;;;11.98;3.35;;;;;;;1.00;87.52;95136.19;6260796;28;20041;-66
2023/10/22 01:41:18;;;;;;;12.65;3.63;;;;;;;1.00;87.58;95136.19;6259332;28;20049;-67
2023/10/22 01:44:22;;;;;;;;;;;;;;;1.11;87.73;95145.03;6261179;28;20037;-66
2023/10/22 01:47:30;;;;;;;7.45;3.05;;;;;;;1.02;87.80;95144.69;6258666;28;19917;-67
2023/10/22 01:50:36;;;;;;;13.68;4.28;;;;;;;1.07;87.67;95159.06;6244023;28;20444;-65
2023/10/22 01:53:41;;;;;;;24.13;5.88;;;;;;;1.01;87.25;95168.94;6266773;28;20470;-66
2023/10/22 01:56:46;;;;;;;15.63;4.18;;;;;;;1.03;87.35;95188.66;6268438;28;20049;-66
2023/10/22 01:59:48;;;;;;;3.53;1.83;;;;;;;1.00;87.35;95188.00;6287397;28;20044;-66
2023/10/22 02:02:54;;;;;;;3.85;1.80;;;;;;;0.99;87.89;95186.28;6282800;28;20047;-66
2023/10/22 02:06:11;;;;;;;3.58;1.58;;;;;;;0.97;87.72;95183.81;6275115;28;20040;-67
2023/10/22 02:09:16;;;;;;;2.50;1.65;;;;;;;0.97;87.98;95199.34;6265621;28;20053;-65
2023/10/22 02:12:25;;;;;;;2.08;1.40;;;;;;;1.03;87.96;95193.00;6268565;28;20037;-67
2023/10/22 02:15:27;;;;;;;3.53;1.75;;;;;;;1.03;87.43;95196.41;6278934;28;20049;-67
2023/10/22 02:18:29;;;;;;;1.98;1.70;;;;;;;1.08;87.21;95207.38;6267782;28;20048;-66
2023/10/22 02:21:33;;;;;;;2.50;1.92;;;;;;;1.03;87.61;95208.53;6280032;28;20139;-68
2023/10/22 02:24:39;;;;;;;1.85;1.48;;;;;;;1.18;87.26;95225.81;6279421;28;20049;-67
2023/10/22 02:27:43;;;;;;;;;;;;;;;1.10;87.52;95239.22;6266076;28;20053;-66
2023/10/22 02:30:49;;;;;;;1.58;1.20;;;;;;;1.13;87.30;95240.78;6283178;28;20383;-67
2023/10/22 02:34:04;;;;;;;1.73;1.33;;;;;;;1.10;87.50;95240.94;6282827;28;20102;-66
2023/10/22 02:37:11;;;;;;;1.38;0.98;;;;;;;1.08;87.68;95253.16;6277277;28;20048;-67
2023/10/22 02:40:17;;;;;;;1.50;1.40;;;;;;;1.09;88.21;95270.38;6287011;28;20082;-66
2023/10/22 02:43:21;;;;;;;2.80;1.30;;;;;;;1.16;88.22;95270.88;6280219;28;20056;-67
2023/10/22 02:46:24;;;;;;;0.82;0.82;;;;;;;1.21;88.24;95259.34;6264620;28;20511;-67
2023/10/22 02:49:26;;;;;;;1.88;1.13;;;;;;;1.18;88.10;95259.50;6253106;28;20135;-66
2023/10/22 02:52:31;;;;;;;0.95;0.80;;;;;;;1.21;87.69;95264.53;6284509;28;20166;-66
2023/10/22 02:55:35;;;;;;;1.00;0.80;;;;;;;1.21;87.92;95282.66;6282952;28;20061;-65
2023/10/22 02:58:40;;;;;;;1.08;0.95;;;;;;;1.30;87.56;95289.97;6275588;28;20040;-66
2023/10/22 03:01:47;;;;;;;0.88;0.73;;;;;;;1.19;87.90;95279.34;6268965;28;20424;-66
2023/10/22 03:04:51;;;;;;;1.02;0.93;;;;;;;1.23;87.98;95295.53;6280744;28;20059;-66
2023/10/22 03:07:53;;;;;;;1.45;0.80;;;;;;;1.38;87.42;95314.63;6276111;28;20054;-66
2023/10/22 03:11:01;;;;;;;0.77;0.70;;;;;;;1.39;87.64;95318.88;6280651;28;20040;-66
2023/10/22 03:14:07;;;;;;;0.70;0.60;;;;;;;1.31;87.20;95321.88;6265241;28;20044;-66
2023/10/22 03:17:13;;;;;;;1.08;1.00;;;;;;;1.43;87.64;95330.75;6264822;28;20511;-66
2023/10/22 03:20:18;;;;;;;0.70;0.70;;;;;;;1.44;87.80;95337.59;6283232;28;20049;-66
2023/10/22 03:23:20;;;;;;;0.95;0.68;;;;;;;1.36;87.45;95327.66;6279467;28;20138;-66
2023/10/22 03:26:22;;;;;;;1.00;0.95;;;;;;;1.42;87.95;95329.09;6283762;28;20037;-66
2023/10/22 03:29:25;;;;;;;1.08;0.95;;;;;;;1.51;87.81;95331.19;6279954;28;20056;-66
2023/10/22 03:32:31;;;;;;;1.02;0.93;;;;;;;1.49;87.84;95327.84;6269339;28;20131;-67
2023/10/22 03:35:35;;;;;;;0.90;0.90;;;;;;;1.46;87.86;95336.59;6267740;28;20044;-66
2023/10/22 03:38:41;;;;;;;0.85;0.75;;;;;;;1.56;88.30;95336.97;6282823;28;20041;-66
2023/10/22 03:41:47;;;;;;;0.70;0.70;;;;;;;1.68;87.74;95346.66;6276975;28;20544;-66
2023/10/22 03:44:48;;;;;;;1.50;1.17;;;;;;;1.67;87.20;95352.78;6279583;28;20452;-66
2023/10/22 03:47:54;;;;;;;1.70;1.33;;;;;;;1.75;87.28;95363.53;6278706;28;20428;-66
2023/10/22 03:50:58;;;;;;;1.73;1.60;;;;;;;1.68;87.30;95371.75;6276413;28;20068;-66
2023/10/22 03:54:00;;;;;;;1.08;1.00;;;;;;;1.76;87.05;95386.00;6280569;28;20055;-66
2023/10/22 03:57:02;;;;;;;2.95;1.52;;;;;;;1.79;86.03;95385.00;6283389;28;20052;-66
2023/10/22 04:00:07;;;;;;;2.42;1.73;;;;;;;1.72;86.19;95400.03;6286032;28;20139;-67
2023/10/22 04:03:11;;;;;;;2.50;1.50;;;;;;;1.77;86.66;95403.22;6286217;28;20056;-65
2023/10/22 04:06:13;;;;;;;3.33;2.13;;;;;;;1.91;85.35;95404.22;6288346;28;20119;-67
2023/10/22 04:09:17;;;;;;;3.72;2.45;;;;;;;1.88;84.67;95409.59;6285565;28;20041;-66
2023/10/22 04:12:18;;;;;;;3.80;2.40;;;;;;;1.76;84.50;95411.09;6287733;28;20044;-66
2023/10/22 04:15:20;;;;;;;2.28;2.00;;;;;;;1.81;83.36;95432.41;6274758;28;20051;-66
2023/10/22 04:18:24;;;;;;;3.47;2.38;;;;;;;1.88;82.76;95432.94;6286478;28;20037;-66
2023/10/22 04:21:31;;;;;;;2.05;1.85;;;;;;;1.84;81.64;95446.97;6281993;28;20049;-67
2023/10/22 04:24:35;;;;;;;2.15;1.95;;;;;;;1.88;81.13;95453.69;6286126;28;20201;-67
2023/10/22 04:27:42;;;;;;;2.78;2.45;;;;;;;1.85;80.79;95448.66;6286854;28;20041;-66
2023/10/22 04:30:45;;;;;;;3.22;2.13;;;;;;;1.83;81.12;95466.06;6286675;28;20237;-66
2023/10/22 04:33:49;;;;;;;4.10;2.28;;;;;;;1.88;80.78;95474.44;6287393;28;20036;-66
2023/10/22 04:36:54;;;;;;;3.10;1.92;;;;;;;1.82;80.40;95478.19;6280111;28;20379;-73
2023/10/22 04:40:01;;;;;;;3.47;2.40;;;;;;;1.48;79.74;95481.69;6284702;28;20040;-70
2023/10/22 04:43:07;;;;;;;2.90;2.03;;;;;;;1.34;80.57;95493.59;6285348;28;20036;-69
2023/10/22 04:46:13;;;;;;;3.28;2.53;;;;;;;1.41;79.34;95493.28;6276078;28;20531;-69
2023/10/22 04:49:26;;;;;;;3.20;2.50;;;;;;;1.39;78.47;95505.47;6289991;28;20287;-68
2023/10/22 04:52:36;;;;;;;3.55;2.38;;;;;;;1.27;77.50;95505.16;6279212;28;20040;-71
2023/10/22 04:55:37;;;;;;;3.20;1.80;;;;;;;1.46;77.85;95519.81;6281118;28;20186;-69
2023/10/22 04:58:42;;;;;;;3.97;2.47;;;;;;;1.61;77.77;95518.19;6283869;28;20036;-69
2023/10/22 05:01:53;;;;;;;3.63;2.13;;;;;;;1.65;77.56;95517.13;6285617;28;20037;-70
2023/10/22 05:05:00;;;;;;;2.20;1.95;;;;;;;1.47;77.95;95521.47;6283018;28;20052;-70
2023/10/22 05:08:02;;;;;;;2.28;2.00;;;;;;;1.57;77.67;95535.66;6283167;28;20420;-68
2023/10/22 05:11:14;;;;;;;4.63;2.53;;;;;;;1.63;77.02;95550.91;6280029;28;20135;-67
2023/10/22 05:14:18;;;;;;;4.07;3.22;;;;;;;3.22;77.36;95557.06;6264279;28;20471;-66
2023/10/22 05:17:24;;;;;;;4.57;2.97;;;;;;;7.60;70.65;95574.59;6280697;28;20044;-67
2023/10/22 05:20:28;;;;;;;;;;;;;;;10.81;64.65;95582.31;6279725;28;20158;-68
2023/10/22 05:23:30;;;;;;;2.40;1.93;;;;;;;11.36;61.76;95588.84;6284301;28;19923;-69
2023/10/22 05:26:37;;;;;;;2.72;2.33;;;;;;;10.29;61.07;95593.69;6283062;28;20036;-69
2023/10/22 05:29:41;;;;;;;1.50;1.25;;;;;;;12.58;57.45;95595.34;6271061;28;20036;-70
2023/10/22 05:32:49;;;;;;;2.08;1.88;;;;;;;13.34;54.05;95604.97;6281207;28;20045;-70
2023/10/22 05:35:56;;;;;;;2.22;1.98;;;;;;;14.14;51.36;95607.72;6282985;28;20036;-70
2023/10/22 05:39:02;;;;;;;1.60;1.40;;;;;;;10.77;50.81;95614.16;6285169;28;20033;-71
2023/10/22 05:42:06;;;;;;;2.45;1.50;;;;;;;9.80;52.83;95610.03;6286931;28;20044;-70
2023/10/22 05:45:12;;;;;;;1.58;1.15;;;;;;;11.76;48.74;95608.19;6282124;28;20049;-72
2023/10/22 05:48:14;;;;;;;1.65;1.50;;;;;;;13.13;46.98;95628.09;6267985;28;20504;-70
2023/10/22 05:51:16;;;;;;;2.40;1.52;;;;;;;13.74;44.14;95627.53;6284784;28;20052;-70
2023/10/22 05:54:22;;;;;;;1.95;1.58;;;;;;;15.05;44.37;95633.88;6279571;28;20076;-70
2023/10/22 05:57:32;;;;;;;1.33;1.10;;;;;;;16.26;42.03;95641.59;6287117;28;20127;-69
2023/10/22 06:00:40;;;;;;;2.53;1.60;;;;;;;16.69;40.80;95648.38;6282835;28;20052;-70
2023/10/22 06:03:43;;;;;;;11.25;10.73;;;;;;;17.28;37.42;95667.56;6285404;28;20037;-70
2023/10/22 06:06:45;;;;;;;3.13;2.88;;;;;;;16.97;37.21;95664.81;6282782;28;20048;-69
2023/10/22 06:09:49;;;;;;;3.08;2.45;;;;;;;17.94;35.58;95668.16;6284279;28;20095;-70
2023/10/22 06:12:56;;;;;;;1.23;1.13;;;;;;;17.86;33.16;95675.38;6280266;28;20562;-69
2023/10/22 06:16:00;;;;;;;1.45;1.10;;;;;;;18.26;32.41;95666.34;6278695;28;20586;-70
2023/10/22 06:19:05;;;;;;;1.45;1.02;;;;;;;18.15;30.33;95670.22;6279594;28;20053;-70
2023/10/22 06:22:07;;;;;;;1.75;1.02;;;;;;;18.26;27.85;95677.00;6285117;28;20429;-69
2023/10/22 06:25:13;;;;;;;1.10;0.80;;;;;;;18.94;28.65;95690.47;6279937;28;20041;-71
2023/10/22 06:28:23;;;;;;;1.55;0.90;;;;;;;19.38;27.34;95687.06;6281796;28;20035;-69
2023/10/22 06:31:30;;;;;;;1.27;1.05;;;;;;;19.72;26.70;95702.53;6281326;28;20442;-70
2023/10/22 06:34:32;;;;;;;0.93;0.80;;;;;;;20.10;25.37;95697.91;6284368;28;20055;-70
2023/10/22 06:37:40;;;;;;;1.58;0.85;;;;;;;19.64;26.57;95708.75;6281570;28;20070;-70
2023/10/22 06:40:42;;;;;;;0.85;0.60;;;;;;;20.58;24.99;95708.09;6282756;28;20102;-69
2023/10/22 06:43:50;;;;;;;2.13;0.90;;;;;;;21.16;25.76;95705.34;6286632;28;20044;-71
2023/10/22 06:46:54;;;;;;;3.28;1.45;;;;;;;21.91;24.79;95707.28;6284297;28;20041;-69
2023/10/22 06:49:58;;;;;;;1.83;1.20;;;;;;;22.78;22.75;95708.41;6280648;28;20503;-70
2023/10/22 06:53:00;;;;;;;1.73;1.17;;;;;;;23.23;23.54;95711.34;6281530;28;20052;-69
2023/10/22 06:56:05;;;;;;;0.80;0.65;;;;;;;23.89;22.07;95701.56;6243225;28;20090;-69
2023/10/22 06:59:10;;;;;;;1.10;0.90;;;;;;;23.54;20.65;95707.19;6284373;28;20458;-69
2023/10/22 07:02:13;;;;;;;1.00;0.88;;;;;;;23.85;21.07;95719.16;6281627;28;20173;-67
2023/10/22 07:05:17;;;;;;;1.55;1.10;;;;;;;22.77;20.36;95716.66;6282348;28;20036;-69
2023/10/22 07:08:23;;;;;;;1.40;0.98;;;;;;;21.64;21.55;95716.19;6285082;28;20399;-72
2023/10/22 07:11:33;;;;;;;1.52;1.00;;;;;;;21.52;21.16;95727.44;6281169;28;20044;-69
2023/10/22 07:14:41;;;;;;;1.63;0.80;;;;;;;21.95;21.49;95729.97;6284187;28;20510;-70
2023/10/22 07:17:47;;;;;;;1.17;0.85;;;;;;;22.16;20.58;95733.56;6276458;28;20045;-69
2023/10/22 07:20:52;;;;;;;0.85;0.75;;;;;;;20.37;21.63;95740.94;6262613;28;20071;-70
2023/10/22 07:24:00;;;;;;;1.42;0.90;;;;;;;20.55;22.52;95745.88;6281357;28;20507;-70
2023/10/22 07:27:03;;;;;;;1.42;0.93;;;;;;;21.10;20.52;95740.88;6281656;28;20538;-70
2023/10/22 07:30:05;;;;;;;0.90;0.77;;;;;;;21.47;20.83;95753.97;6280563;28;20155;-70
2023/10/22 07:33:10;;;;;;;1.23;0.90;;;;;;;21.83;19.66;95752.16;6283283;28;20056;-70
2023/10/22 07:36:13;;;;;;;1.63;1.08;;;;;;;20.00;20.85;95756.09;6279909;28;20041;-71
2023/10/22 07:39:18;;;;;;;1.63;1.02;;;;;;;20.08;21.04;95757.84;6282199;28;20041;-70
2023/10/22 07:42:28;;;;;;;1.00;0.63;;;;;;;20.38;20.63;95769.28;6280522;28;20148;-69
2023/10/22 07:45:37;;;;;;;1.70;1.33;;;;;;;19.84;21.04;95773.13;6282684;28;20040;-70
2023/10/22 07:48:45;;;;;;;1.35;0.85;;;;;;;20.03;21.16;95774.41;6276723;28;20408;-73
2023/10/22 07:51:50;;;;;;;1.42;0.95;;;;;;;19.43;21.23;95786.03;6283962;28;20052;-74
2023/10/22 07:54:59;;;;;;;1.02;0.88;;;;;;;19.22;21.80;95805.38;6280476;28;20614;-72
2023/10/22 07:58:03;;;;;;;1.05;0.90;;;;;;;18.91;22.15;95800.13;6276002;28;20512;-71
2023/10/22 08:01:12;;;;;;;1.60;1.10;;;;;;;19.04;22.21;95808.34;6279143;28;20040;-71
2023/10/22 08:04:20;;;;;;;0.98;0.70;;;;;;;20.41;21.74;95823.22;6276800;28;20037;-73
2023/10/22 08:07:27;;;;;;;1.35;0.90;;;;;;;21.44;20.48;95815.91;6281092;28;20653;-73
2023/10/22 08:10:35;;;;;;;1.20;0.85;;;;;;;21.07;20.15;95823.16;6280630;28;20579;-73
2023/10/22 08:13:39;;;;;;;1.08;0.77;;;;;;;21.62;20.08;95833.34;6273154;28;20037;-72
2023/10/22 08:16:41;;;;;;;1.48;1.10;;;;;;;21.17;20.18;95848.75;6261162;28;20045;-75
2023/10/22 08:19:47;;;;;;;1.67;1.30;;;;;;;21.00;20.51;95835.63;6278737;28;20040;-71
2023/10/22 08:22:51;;;;;;;2.42;1.10;;;;;;;20.68;20.80;95850.28;6282944;28;20037;-69
2023/10/22 08:25:53;;;;;;;1.10;0.82;;;;;;;20.57;20.37;95862.28;6280363;28;20427;-75
2023/10/22 08:28:59;;;;;;;1.35;0.60;;;;;;;19.51;21.07;95860.66;6276745;28;20501;-72
2023/10/22 08:32:03;;;;;;;1.15;1.00;;;;;;;20.25;20.88;95865.31;6260950;28;20435;-73
2023/10/22 08:35:06;;;;;;;1.38;0.80;;;;;;;19.43;20.58;95866.06;6276489;28;20448;-75
2023/10/22 08:38:08;;;;;;;0.50;0.40;;;;;;;17.68;22.31;95869.78;6268022;28;20167;-75
2023/10/22 08:41:19;;;;;;;1.52;0.80;;;;;;;17.66;23.06;95882.41;6289118;28;20051;-74
2023/10/22 08:44:22;;;;;;;1.10;0.98;;;;;;;17.50;22.86;95873.47;6281687;28;20060;-72
2023/10/22 08:47:29;;;;;;;1.25;0.80;;;;;;;17.11;23.23;95869.78;6276733;28;20509;-71
2023/10/22 08:50:37;;;;;;;2.00;0.95;;;;;;;16.98;23.73;95868.44;6278349;28;20048;-70
2023/10/22 08:53:41;;;;;;;1.20;0.68;;;;;;;17.15;23.30;95890.53;6281309;28;20048;-74
2023/10/22 08:56:46;;;;;;;1.58;0.70;;;;;;;16.87;23.76;95887.38;6287476;28;20037;-71
2023/10/22 08:59:50;;;;;;;1.40;1.00;;;;;;;16.44;24.15;95865.28;6282550;28;20106;-68
2023/10/22 09:02:55;;;;;;;0.98;0.70;;;;;;;16.03;24.45;95888.97;6285703;28;20051;-71
2023/10/22 09:06:03;;;;;;;1.00;0.70;;;;;;;15.55;25.26;95897.41;6281114;28;20122;-68
2023/10/22 09:09:07;;;;;;;1.60;0.68;;;;;;;15.91;25.01;95901.69;6278315;28;20040;-67
2023/10/22 09:12:15;;;;;;;1.25;0.90;;;;;;;16.02;24.91;95907.69;6284958;28;20044;-69
2023/10/22 09:15:20;;;;;;;1.70;0.85;;;;;;;16.00;24.70;95922.97;6286332;28;20044;-69
2023/10/22 09:18:24;;;;;;;1.50;0.80;;;;;;;15.77;24.74;95941.19;6287379;28;20600;-67
2023/10/22 09:21:39;;;;;;;;;;;;;;;15.65;24.98;95928.16;6284081;28;20543;-68
2023/10/22 09:24:49;;;;;;;1.15;0.68;;;;;;;14.44;26.11;95941.78;6239668;28;19920;-68
2023/10/22 09:27:53;;;;;;;1.45;0.68;;;;;;;14.37;26.31;95942.34;6274949;28;20063;-68
2023/10/22 09:30:58;;;;;;;0.60;0.50;;;;;;;13.75;26.70;95951.72;6278019;28;20052;-67
2023/10/22 09:34:03;;;;;;;1.65;0.55;;;;;;;13.58;27.13;95949.78;6288741;28;20051;-68
2023/10/22 09:37:04;;;;;;;0.63;0.50;;;;;;;13.94;26.74;95942.91;6287748;28;20478;-68
2023/10/22 09:40:19;;;;;;;0.80;0.60;;;;;;;13.87;27.00;95970.91;6279862;28;20053;-67
2023/10/22 09:43:20;;;;;;;1.00;0.88;;;;;;;14.34;26.71;95977.03;6285067;28;20048;-68
2023/10/22 09:46:31;;;;;;;2.83;1.50;;;;;;;15.09;26.44;95982.31;6280827;28;20045;-68
2023/10/22 09:49:39;;;;;;;1.98;0.80;;;;;;;15.23;25.67;95988.91;6282309;28;20135;-67
2023/10/22 09:52:44;;;;;;;1.30;0.80;;;;;;;15.12;25.75;96015.63;6281109;28;20052;-67
2023/10/22 09:55:52;;;;;;;2.20;1.05;;;;;;;14.65;26.39;96029.78;6284771;28;20044;-66
2023/10/22 09:59:03;;;;;;;0.95;0.57;;;;;;;14.71;26.72;96037.13;6274223;28;20045;-67
2023/10/22 10:02:12;;;;;;;1.00;0.50;;;;;;;13.88;27.41;96034.22;6281636;28;20041;-68
2023/10/22 10:05:22;;;;;;;0.70;0.60;;;;;;;13.75;27.69;96041.59;6265438;28;20045;-66
2023/10/22 10:08:26;;;;;;;0.70;0.55;;;;;;;14.08;27.22;96047.44;6279730;28;20500;-66
2023/10/22 10:11:31;;;;;;;0.68;0.50;;;;;;;14.54;26.70;96065.19;6268218;28;20051;-67
2023/10/22 10:14:47;;;;;;;1.08;0.80;;;;;;;14.88;26.26;96066.47;6276247;28;20161;-66
2023/10/22 10:17:52;;;;;;;0.65;0.60;;;;;;;14.41;26.53;96071.75;6273162;28;20040;-66
2023/10/22 10:20:56;;;;;;;1.13;0.60;;;;;;;14.15;26.90;96086.44;6278787;28;20051;-66
2023/10/22 10:24:25;;;;;;;0.50;0.45;;;;;;;13.55;27.13;96087.50;6279235;28;20056;-67
2023/10/22 10:27:30;;;;;;;1.48;0.50;;;;;;;12.58;28.56;96091.47;6280699;28;20048;-67
2023/10/22 10:30:35;;;;;;;1.40;0.47;;;;;;;13.16;27.77;96098.81;6278844;28;20052;-67
2023/10/22 10:34:01;;;;;;;1.27;0.50;;;;;;;13.29;27.83;96114.44;6274764;28;20056;-67
2023/10/22 10:37:16;;;;;;;0.50;0.50;;;;;;;12.56;28.51;96121.59;6276350;28;20047;-67
2023/10/22 10:40:42;;;;;;;0.43;0.30;;;;;;;12.83;28.59;96134.25;6279704;28;20135;-67
2023/10/22 10:44:08;;;;;;;0.38;0.38;;;;;;;13.34;27.82;96122.81;6274658;28;20420;-67
2023/10/22 10:47:31;;;;;;;0.85;0.50;;;;;;;13.54;27.12;96133.44;6281510;28;20280;-66
2023/10/22 10:50:36;;;;;;;0.82;0.50;;;;;;;12.40;28.20;96147.59;6280732;28;20068;-68
2023/10/22 10:53:55;;;;;;;;;;;;;;;12.47;28.01;96151.41;6281261;28;20147;-65
2023/10/22 10:56:58;;;;;;;0.90;0.30;;;;;;;11.76;29.16;96145.81;6280028;28;20021;-66
2023/10/22 11:00:00;;;;;;;0.85;0.50;;;;;;;11.86;29.12;96146.75;6283075;28;20056;-66
2023/10/22 11:03:10;;;;;;;0.80;0.40;;;;;;;11.43;29.80;96163.34;6282733;28;20045;-66
2023/10/22 11:06:14;;;;;;;0.82;0.40;;;;;;;11.24;29.67;96164.81;6285786;28;20044;-66
2023/10/22 11:09:18;;;;;;;0.65;0.35;;;;;;;10.64;30.33;96179.13;6282192;28;20041;-67
2023/10/22 11:12:21;;;;;;;0.68;0.38;;;;;;;10.39;30.79;96181.94;6278425;28;20091;-68
2023/10/22 11:15:31;;;;;;;1.02;0.38;;;;;;;10.67;30.61;96181.56;6280449;28;20127;-67
2023/10/22 11:18:51;;;;;;;2.42;0.68;;;;;;;10.57;30.76;96191.09;6264368;28;20052;-65
2023/10/22 11:21:56;;;;;;;1.42;0.60;;;;;;;10.50;30.70;96184.59;6277102;28;20077;-70
2023/10/22 11:25:05;;;;;;;1.23;1.00;;;;;;;10.66;30.77;96190.38;6277473;28;20048;-71
2023/10/22 11:28:31;;;;;;;1.88;1.05;;;;;;;12.13;29.85;96205.16;6277484;28;20461;-72
2023/10/22 11:31:38;;;;;;;0.68;0.47;;;;;;;12.90;28.61;96205.84;6284347;28;20500;-69
2023/10/22 11:34:51;;;;;;;0.95;0.50;;;;;;;13.26;28.41;96230.97;6276087;28;20415;-72
2023/10/22 11:37:57;;;;;;;1.00;0.73;;;;;;;13.68;27.79;96225.56;6260229;28;20048;-70
2023/10/22 11:41:03;;;;;;;1.50;0.50;;;;;;;14.02;27.60;96238.47;6277149;28;20048;-71
2023/10/22 11:44:08;;;;;;;0.52;0.40;;;;;;;13.84;27.62;96252.34;6274846;28;20052;-71
2023/10/22 11:47:26;;;;;;;1.35;0.70;;;;;;;12.99;28.43;96245.53;6283086;28;20551;-71
2023/10/22 11:50:37;;;;;;;0.50;0.50;;;;;;;12.50;28.74;96246.97;6260706;28;20491;-73
2023/10/22 11:53:46;;;;;;;1.98;0.50;;;;;;;11.68;30.07;96252.66;6280867;28;20052;-72
2023/10/22 11:56:52;;;;;;;0.50;0.40;;;;;;;10.81;30.53;96234.91;6267039;28;20044;-67
2023/10/22 11:59:59;;;;;;;0.55;0.45;;;;;;;9.73;32.15;96257.72;6285797;28;20554;-67
2023/10/22 12:03:06;;;;;;;2.65;0.98;;;;;;;9.03;33.16;96274.81;6289050;28;20033;-67
2023/10/22 12:06:08;;;;;;;;;;;;;;;7.93;34.81;96276.84;6279101;28;20036;-66
2023/10/22 12:09:09;;;;;;;6.03;3.53;;;;;;;5.88;38.07;96274.22;6208893;28;19920;-67
2023/10/22 12:12:14;;;;;;;8.80;4.65;;;;;;;4.38;41.23;96273.38;6213437;28;20049;-67
2023/10/22 12:15:15;;;;;;;9.43;4.45;;;;;;;3.54;42.89;96275.69;6278043;28;20991;-76
2023/10/22 12:18:23;;;;;;;7.82;3.85;;;;;;;2.78;44.92;96284.34;6281059;28;20037;-69
2023/10/22 12:21:27;;;;;;;1.27;0.90;;;;;;;2.33;45.93;96301.81;6279438;28;20064;-66
2023/10/22 12:24:29;;;;;;;2.20;0.85;;;;;;;2.28;46.46;96315.88;6285888;28;20413;-66
2023/10/22 12:27:32;;;;;;;1.30;0.70;;;;;;;2.47;46.05;96314.22;6284126;28;20037;-68
2023/10/22 12:30:37;;;;;;;0.98;0.60;;;;;;;2.59;45.78;96326.69;6282261;28;20126;-67
2023/10/22 12:33:40;;;;;;;2.10;1.50;;;;;;;2.64;46.30;96347.28;6283209;28;20629;-69
2023/10/22 12:36:47;;;;;;;3.67;2.10;;;;;;;2.18;46.89;96342.22;6274846;28;20451;-66
2023/10/22 12:39:49;;;;;;;2.67;1.52;;;;;;;1.66;47.94;96348.59;6284868;28;20060;-69
2023/10/22 12:42:55;;;;;;;2.17;1.20;;;;;;;1.05;49.42;96352.53;6260047;28;20514;-66
2023/10/22 12:46:01;;;;;;;1.58;0.93;;;;;;;0.77;50.90;96354.41;6284050;28;20043;-66
2023/10/22 12:49:04;;;;;;;4.45;1.67;;;;;;;0.56;51.23;96341.28;6284805;28;20037;-67
2023/10/22 12:52:07;;;;;;;2.75;1.23;;;;;;;0.32;52.10;96348.13;6280640;28;20143;-67
2023/10/22 12:55:08;;;;;;;2.55;1.50;;;;;;;0.02;53.07;96346.53;6281482;28;20055;-68
2023/10/22 12:58:12;;;;;;;4.40;2.47;;;;;;;-0.13;52.78;96348.69;6284384;28;20048;-66
2023/10/22 13:01:18;;;;;;;4.60;2.17;;;;;;;-0.12;53.12;96349.53;6288583;28;20463;-66
2023/10/22 13:04:22;;;;;;;3.38;1.95;;;;;;;-0.28;53.41;96351.78;6280802;28;20356;-68
2023/10/22 13:07:33;;;;;;;2.80;1.77;;;;;;;-0.23;53.93;96357.63;6287936;28;20041;-67
2023/10/22 13:10:49;;;;;;;2.25;1.35;;;;;;;-0.35;53.61;96352.84;6278709;28;20041;-66
2023/10/22 13:13:54;;;;;;;3.83;1.48;;;;;;;-0.45;53.75;96357.44;6282316;28;20053;-67
2023/10/22 13:17:00;;;;;;;0.85;0.80;;;;;;;-0.55;53.94;96367.19;6281354;28;20407;-67
2023/10/22 13:20:08;;;;;;;2.25;1.27;;;;;;;-0.68;54.95;96381.34;6275992;28;20040;-67
2023/10/22 13:23:14;;;;;;;1.80;1.35;;;;;;;-0.70;55.26;96394.31;6283184;28;20431;-67
2023/10/22 13:26:19;;;;;;;1.88;1.15;;;;;;;-0.86;55.37;96392.19;6282161;28;20041;-67
2023/10/22 13:29:29;;;;;;;1.65;1.30;;;;;;;-0.95;56.06;96399.31;6287316;28;20032;-66
2023/10/22 13:32:32;;;;;;;2.00;1.20;;;;;;;-0.99;56.27;96422.66;6287505;28;20048;-66
2023/10/22 13:35:41;;;;;;;2.95;1.15;;;;;;;-1.40;56.65;96396.19;6283744;28;20084;-68
2023/10/22 13:38:49;;;;;;;1.52;0.90;;;;;;;-1.08;56.74;96433.25;6282827;28;20094;-66
2023/10/22 13:41:53;;;;;;;3.65;1.83;;;;;;;-1.25;56.49;96437.09;6283699;28;20048;-66
2023/10/22 13:45:00;;;;;;;1.73;1.00;;;;;;;-1.12;56.91;96447.97;6274629;28;20148;-67
2023/10/22 13:48:01;;;;;;;0.93;0.60;;;;;;;-1.12;56.40;96458.31;6276947;28;20471;-68
2023/10/22 13:51:05;;;;;;;1.67;0.80;;;;;;;-1.22;56.31;96459.41;6283984;28;20033;-66
2023/10/22 13:54:10;;;;;;;5.22;1.60;;;;;;;-1.19;56.15;96461.91;6278892;28;20171;-67
2023/10/22 13:57:11;;;;;;;5.00;1.45;;;;;;;-1.46;56.69;96469.47;6284700;28;20048;-66
2023/10/22 14:00:13;;;;;;;2.60;1.60;;;;;;;-1.48;56.90;96476.38;6283786;28;20515;-66
2023/10/22 14:03:20;;;;;;;6.32;1.67;;;;;;;-1.43;57.52;96469.38;6285589;28;20044;-66
2023/10/22 14:06:28;;;;;;;2.38;1.17;;;;;;;-1.47;57.93;96480.69;6285569;28;20037;-68
2023/10/22 14:09:34;;;;;;;2.85;1.33;;;;;;;-1.51;57.59;96484.19;6277222;28;20786;-65
2023/10/22 14:12:38;;;;;;;1.27;0.80;;;;;;;-1.55;57.85;96482.59;6275339;28;20416;-67
2023/10/22 14:15:47;;;;;;;2.05;1.38;;;;;;;-1.55;57.75;96490.31;6260316;28;20037;-67
2023/10/22 14:18:51;;;;;;;5.45;2.40;;;;;;;-1.56;58.16;96493.75;6279109;28;20527;-70
2023/10/22 14:21:58;;;;;;;7.63;3.03;;;;;;;-1.59;57.83;96491.25;6279625;28;20044;-66
2023/10/22 14:25:02;;;;;;;;;;;;;;;-1.66;57.42;96498.31;6277163;28;20049;-67
2023/10/22 14:28:06;;;;;;;7.07;3.00;;;;;;;-1.72;58.24;96507.91;6280473;28;19920;-67
2023/10/22 14:31:08;;;;;;;4.68;2.88;;;;;;;-1.76;58.38;96508.84;6270974;28;20056;-66
2023/10/22 14:34:17;;;;;;;3.85;2.15;;;;;;;-1.85;58.99;96512.50;6269410;28;20040;-68
2023/10/22 14:37:26;;;;;;;2.80;1.63;;;;;;;-1.73;58.84;96537.16;6278568;28;20040;-69
2023/10/22 14:40:32;;;;;;;3.22;1.40;;;;;;;-1.83;59.01;96537.38;6279199;28;20040;-69
2023/10/22 14:43:36;;;;;;;5.28;1.60;;;;;;;-1.83;58.56;96539.94;6278489;28;20040;-69